createdAt,value
2019-04-04T00:00:01.817Z,7.57
2019-04-04T00:05:33.135Z,6.90
2019-04-04T00:08:21.158Z,7.43
2019-04-04T00:11:09.188Z,6.80
2019-04-04T00:13:57.261Z,6.27
2019-04-04T00:16:46.800Z,6.60
2019-04-04T00:19:35.134Z,7.03
2019-04-04T00:22:23.155Z,7.37
2019-04-04T00:25:11.172Z,6.40
2019-04-04T00:27:59.448Z,6.90
2019-04-04T00:30:48.416Z,6.10
2019-04-04T00:33:37.545Z,5.43
2019-04-04T00:36:25.550Z,8.90
2019-04-04T00:39:13.592Z,7.30
2019-04-04T00:42:01.599Z,6.97
2019-04-04T00:44:49.946Z,6.90
2019-04-04T00:47:37.956Z,5.83
2019-04-04T00:50:26.055Z,5.60
2019-04-04T00:53:14.081Z,6.27
2019-04-04T00:56:02.188Z,5.90
2019-04-04T00:58:43.560Z,5.20
2019-04-04T01:01:26.823Z,6.40
2019-04-04T01:04:07.367Z,7.23
2019-04-04T01:09:33.845Z,7.30
2019-04-04T01:12:14.270Z,8.30
2019-04-04T01:14:55.385Z,6.90
2019-04-04T01:17:36.217Z,7.87
2019-04-04T01:20:18.109Z,6.90
2019-04-04T01:22:59.773Z,7.93
2019-04-04T01:25:40.512Z,8.20
2019-04-04T01:28:21.565Z,7.43
2019-04-04T01:31:03.182Z,7.57
2019-04-04T01:33:44.479Z,8.07
2019-04-04T01:36:25.970Z,7.93
2019-04-04T01:39:06.568Z,7.60
2019-04-04T01:41:47.223Z,9.40
2019-04-04T01:44:27.763Z,7.40
2019-04-04T01:47:08.462Z,8.90
2019-04-04T01:49:49.910Z,8.83
2019-04-04T01:52:32.504Z,9.17
2019-04-04T01:55:13.469Z,10.10
2019-04-04T01:57:54.513Z,8.80
2019-04-04T02:00:35.511Z,9.53
2019-04-04T02:03:16.475Z,8.50
2019-04-04T02:05:58.168Z,7.90
2019-04-04T02:08:39.087Z,9.03
2019-04-04T02:11:19.826Z,9.13
2019-04-04T02:14:00.408Z,10.27
2019-04-04T02:16:40.788Z,7.93
2019-04-04T02:19:24.552Z,10.20
2019-04-04T02:22:04.516Z,9.20
2019-04-04T02:24:45.094Z,10.03
2019-04-04T02:27:25.723Z,8.90
2019-04-04T02:30:06.481Z,9.70
2019-04-04T02:32:47.712Z,8.13
2019-04-04T02:35:28.633Z,12.77
2019-04-04T02:38:09.740Z,10.17
2019-04-04T02:40:50.644Z,11.17
2019-04-04T02:43:31.619Z,10.63
2019-04-04T02:46:12.547Z,9.90
2019-04-04T02:48:56.235Z,10.57
2019-04-04T02:51:40.221Z,12.67
2019-04-04T02:54:24.156Z,9.57
2019-04-04T02:57:02.483Z,9.53
2019-04-04T02:59:43.445Z,10.87
2019-04-04T03:02:24.742Z,10.00
2019-04-04T03:05:05.493Z,10.20
2019-04-04T03:07:46.292Z,10.60
2019-04-04T03:10:27.525Z,10.90
2019-04-04T03:13:07.873Z,10.37
2019-04-04T03:15:48.689Z,13.33
2019-04-04T03:18:29.649Z,15.40
2019-04-04T03:21:10.276Z,13.47
2019-04-04T03:23:51.305Z,11.43
2019-04-04T03:26:32.109Z,11.10
2019-04-04T03:29:12.865Z,12.57
2019-04-04T03:31:53.433Z,11.80
2019-04-04T03:34:34.674Z,10.80
2019-04-04T03:37:15.266Z,10.10
2019-04-04T03:39:56.284Z,13.13
2019-04-04T03:42:37.126Z,10.03
2019-04-04T03:45:18.002Z,9.87
2019-04-04T03:47:59.292Z,11.60
2019-04-04T03:50:39.802Z,14.17
2019-04-04T03:53:21.562Z,12.57
2019-04-04T03:56:02.210Z,11.40
2019-04-04T03:58:42.801Z,12.63
2019-04-04T04:01:23.599Z,11.67
2019-04-04T04:04:04.268Z,10.93
2019-04-04T04:06:45.044Z,11.90
2019-04-04T04:09:26.372Z,10.03
2019-04-04T04:12:11.132Z,12.20
2019-04-04T04:14:54.115Z,15.97
2019-04-04T04:17:36.239Z,12.13
2019-04-04T04:20:16.452Z,14.97
2019-04-04T04:22:57.509Z,15.63
2019-04-04T04:25:38.881Z,13.30
2019-04-04T04:28:20.805Z,12.20
2019-04-04T04:31:01.914Z,13.73
2019-04-04T04:33:42.366Z,11.87
2019-04-04T04:36:23.022Z,13.70
2019-04-04T04:39:05.593Z,12.73
2019-04-04T04:41:46.542Z,14.90
2019-04-04T04:44:27.394Z,13.63
2019-04-04T04:47:07.982Z,13.23
2019-04-04T04:49:48.732Z,10.50
2019-04-04T04:52:29.528Z,13.50
2019-04-04T04:54:58.324Z,14.70
2019-04-04T04:57:46.410Z,17.33
2019-04-04T05:00:34.486Z,17.13
2019-04-04T05:03:24.257Z,14.53
2019-04-04T05:06:12.532Z,15.50
2019-04-04T05:09:00.864Z,13.57
2019-04-04T05:11:50.237Z,14.03
2019-04-04T05:14:38.625Z,14.30
2019-04-04T05:17:26.647Z,17.37
2019-04-04T05:20:14.668Z,14.87
2019-04-04T05:23:02.785Z,17.87
2019-04-04T05:25:54.153Z,17.87
2019-04-04T05:28:42.019Z,14.97
2019-04-04T05:31:30.327Z,15.77
2019-04-04T05:34:18.449Z,14.97
2019-04-04T05:37:07.284Z,16.53
2019-04-04T05:39:51.504Z,14.40
2019-04-04T05:42:33.014Z,17.90
2019-04-04T05:45:15.139Z,16.80
2019-04-04T05:47:58.310Z,14.47
2019-04-04T05:50:38.216Z,15.47
2019-04-04T05:53:21.441Z,16.53
2019-04-04T05:56:01.349Z,13.73
2019-04-04T05:58:42.014Z,15.83
2019-04-04T06:04:04.966Z,19.97
2019-04-04T06:06:46.245Z,19.20
2019-04-04T06:09:27.160Z,18.67
2019-04-04T06:12:07.960Z,18.33
2019-04-04T06:14:49.356Z,18.60
2019-04-04T06:17:29.920Z,16.67
2019-04-04T06:20:10.275Z,18.30
2019-04-04T06:22:52.013Z,20.43
2019-04-04T06:25:35.576Z,16.80
2019-04-04T06:28:16.179Z,20.80
2019-04-04T06:30:56.864Z,20.90
2019-04-04T06:33:37.701Z,19.83
2019-04-04T06:36:18.438Z,21.17
2019-04-04T06:38:59.249Z,20.97
2019-04-04T06:41:40.594Z,19.93
2019-04-04T06:44:21.122Z,18.57
2019-04-04T06:47:02.638Z,19.07
2019-04-04T06:49:45.791Z,20.80
2019-04-04T06:52:25.978Z,18.70
2019-04-04T06:55:06.552Z,21.03
2019-04-04T06:57:49.802Z,22.50
2019-04-04T07:00:29.493Z,22.60
2019-04-04T07:03:10.185Z,22.07
2019-04-04T07:05:50.839Z,26.33
2019-04-04T07:08:31.384Z,23.10
2019-04-04T07:11:21.293Z,21.93
2019-04-04T07:13:57.043Z,22.00
2019-04-04T07:16:38.029Z,20.90
2019-04-04T07:19:18.450Z,24.40
2019-04-04T07:21:58.817Z,24.27
2019-04-04T07:24:39.531Z,24.50
2019-04-04T07:27:20.273Z,23.17
2019-04-04T07:30:01.181Z,22.23
2019-04-04T07:32:41.853Z,22.87
2019-04-04T07:35:22.264Z,22.30
2019-04-04T07:38:02.734Z,22.67
2019-04-04T07:40:43.977Z,22.67
2019-04-04T07:43:24.658Z,23.80
2019-04-04T07:46:16.173Z,21.60
2019-04-04T07:48:51.288Z,21.63
2019-04-04T07:51:30.962Z,21.47
2019-04-04T07:56:55.529Z,22.20
2019-04-04T07:59:36.187Z,26.80
2019-04-04T08:02:16.849Z,28.07
2019-04-04T08:04:57.614Z,26.00
2019-04-04T08:07:38.182Z,24.37
2019-04-04T08:10:20.901Z,26.67
2019-04-04T08:13:01.795Z,26.33
2019-04-04T08:15:42.482Z,28.03
2019-04-04T08:18:23.645Z,26.00
2019-04-04T08:21:05.714Z,34.47
2019-04-04T08:23:46.973Z,32.87
2019-04-04T08:26:27.504Z,37.43
2019-04-04T08:29:08.424Z,32.83
2019-04-04T08:31:49.427Z,36.40
2019-04-04T08:34:30.134Z,33.30
2019-04-04T08:37:11.125Z,36.67
2019-04-04T08:39:52.236Z,39.30
2019-04-04T08:42:32.963Z,37.27
2019-04-04T08:45:13.848Z,32.83
2019-04-04T08:47:54.841Z,29.53
2019-04-04T08:50:35.496Z,32.43
2019-04-04T08:53:16.271Z,31.93
2019-04-04T08:55:57.335Z,36.00
2019-04-04T08:58:37.874Z,30.30
2019-04-04T09:01:19.107Z,33.87
2019-04-04T09:04:00.068Z,36.93
2019-04-04T09:06:40.768Z,30.37
2019-04-04T09:09:21.890Z,31.50
2019-04-04T09:12:03.136Z,30.43
2019-04-04T09:14:44.328Z,29.57
2019-04-04T09:17:25.635Z,32.10
2019-04-04T09:20:09.340Z,27.67
2019-04-04T09:22:48.638Z,29.70
2019-04-04T09:25:29.514Z,31.57
2019-04-04T09:28:10.694Z,33.73
2019-04-04T09:30:51.667Z,30.40
2019-04-04T09:33:32.178Z,31.83
2019-04-04T09:36:13.013Z,30.73
2019-04-04T09:38:53.874Z,37.37
2019-04-04T09:41:34.673Z,31.27
2019-04-04T09:44:16.012Z,28.60
2019-04-04T09:47:05.275Z,31.33
2019-04-04T09:49:39.448Z,31.83
2019-04-04T09:52:20.275Z,28.90
2019-04-04T09:55:01.174Z,29.57
2019-04-04T09:57:42.117Z,32.77
2019-04-04T10:00:22.953Z,35.27
2019-04-04T10:03:03.793Z,29.33
2019-04-04T10:05:44.628Z,40.60
2019-04-04T10:08:25.413Z,37.07
2019-04-04T10:11:06.324Z,42.07
2019-04-04T10:13:46.760Z,36.40
2019-04-04T10:16:27.724Z,32.57
2019-04-04T10:21:51.546Z,38.80
2019-04-04T10:24:32.492Z,39.80
2019-04-04T10:27:13.570Z,45.47
2019-04-04T10:29:54.425Z,46.73
2019-04-04T10:32:35.606Z,42.00
2019-04-04T10:35:16.323Z,48.77
2019-04-04T10:37:57.037Z,46.10
2019-04-04T10:40:37.446Z,49.03
2019-04-04T10:43:17.861Z,53.83
2019-04-04T10:45:59.335Z,54.20
2019-04-04T10:48:39.692Z,52.50
2019-04-04T10:51:20.404Z,55.90
2019-04-04T10:54:01.172Z,56.07
2019-04-04T10:56:42.138Z,52.23
2019-04-04T10:59:23.011Z,44.67
2019-04-04T11:02:04.136Z,46.60
2019-04-04T11:07:29.748Z,51.37
2019-04-04T11:10:11.437Z,53.27
2019-04-04T11:12:52.565Z,54.07
2019-04-04T11:15:33.684Z,58.50
2019-04-04T11:18:14.612Z,54.20
2019-04-04T11:20:55.338Z,63.17
2019-04-04T11:23:36.323Z,63.57
2019-04-04T11:26:17.077Z,55.57
2019-04-04T11:28:58.204Z,57.77
2019-04-04T11:31:38.798Z,47.73
2019-04-04T11:37:02.050Z,45.00
2019-04-04T11:39:53.964Z,53.73
2019-04-04T11:42:25.240Z,45.87
2019-04-04T11:45:05.789Z,37.77
2019-04-04T11:47:46.618Z,37.73
2019-04-04T11:50:27.242Z,33.27
2019-04-04T11:53:07.887Z,37.23
2019-04-04T11:55:48.936Z,35.03
2019-04-04T11:58:29.931Z,27.43
2019-04-04T12:01:11.492Z,24.50
2019-04-04T12:06:35.205Z,24.33
2019-04-04T12:09:15.644Z,22.47
2019-04-04T12:11:56.317Z,21.30
2019-04-04T12:14:36.682Z,22.93
2019-04-04T12:17:17.847Z,19.63
2019-04-04T12:19:58.689Z,22.57
2019-04-04T12:22:39.518Z,21.50
2019-04-04T12:25:19.936Z,22.03
2019-04-04T12:28:00.779Z,22.97
2019-04-04T12:30:41.288Z,21.13
2019-04-04T12:36:09.263Z,21.77
2019-04-04T12:38:50.462Z,22.57
2019-04-04T12:41:31.428Z,23.43
2019-04-04T12:44:12.336Z,21.93
2019-04-04T12:46:52.866Z,23.37
2019-04-04T12:49:33.765Z,24.90
2019-04-04T12:52:14.361Z,21.90
2019-04-04T12:54:55.366Z,23.00
2019-04-04T12:57:36.043Z,21.80
2019-04-04T13:00:17.096Z,24.10
2019-04-04T13:02:57.904Z,22.57
2019-04-04T13:05:38.536Z,24.43
2019-04-04T13:08:19.362Z,25.70
2019-04-04T13:13:43.410Z,23.37
2019-04-04T13:16:24.744Z,22.47
2019-04-04T13:19:05.954Z,27.80
2019-04-04T13:21:47.225Z,31.00
2019-04-04T13:24:27.598Z,26.10
2019-04-04T13:27:08.497Z,24.80
2019-04-04T13:29:49.157Z,28.90
2019-04-04T13:32:30.135Z,25.20
2019-04-04T13:35:10.651Z,31.40
2019-04-04T13:37:54.043Z,26.10
2019-04-04T13:40:44.697Z,32.60
2019-04-04T13:43:20.321Z,29.40
2019-04-04T13:46:01.278Z,26.13
2019-04-04T13:48:43.541Z,25.63
2019-04-04T13:51:25.536Z,29.23
2019-04-04T13:54:07.225Z,24.33
2019-04-04T13:56:47.994Z,26.30
2019-04-04T13:59:29.440Z,24.50
2019-04-04T14:02:10.856Z,25.90
2019-04-04T14:04:54.758Z,25.97
2019-04-04T14:07:34.241Z,27.63
2019-04-04T14:12:59.487Z,27.80
2019-04-04T14:15:40.680Z,32.90
2019-04-04T14:18:24.458Z,27.23
2019-04-04T14:21:05.056Z,28.13
2019-04-04T14:23:45.498Z,28.17
2019-04-04T14:26:26.238Z,26.90
2019-04-04T14:29:07.141Z,29.10
2019-04-04T14:31:47.822Z,25.93
2019-04-04T14:37:11.502Z,28.57
2019-04-04T14:39:52.463Z,28.23
2019-04-04T14:42:32.844Z,30.27
2019-04-04T14:45:13.947Z,27.80
2019-04-04T14:47:55.062Z,29.57
2019-04-04T14:50:35.942Z,30.17
2019-04-04T14:53:16.821Z,27.97
2019-04-04T14:55:57.269Z,28.03
2019-04-04T14:58:37.869Z,32.80
2019-04-04T15:04:01.845Z,30.60
2019-04-04T15:06:42.437Z,33.13
2019-04-04T15:09:23.008Z,35.40
2019-04-04T15:12:03.687Z,32.73
2019-04-04T15:14:44.352Z,33.60
2019-04-04T15:17:24.973Z,34.90
2019-04-04T15:20:05.416Z,31.80
2019-04-04T15:22:46.260Z,35.40
2019-04-04T15:25:27.364Z,32.50
2019-04-04T15:28:08.340Z,33.17
2019-04-04T15:30:37.152Z,30.40
2019-04-04T15:33:25.192Z,32.33
2019-04-04T15:36:13.265Z,33.93
2019-04-04T15:38:53.723Z,36.87
2019-04-04T15:41:37.251Z,30.77
2019-04-04T15:44:16.878Z,37.30
2019-04-04T15:46:57.908Z,33.80
2019-04-04T15:49:38.693Z,32.63
2019-04-04T15:52:19.841Z,34.97
2019-04-04T15:55:01.167Z,33.07
2019-04-04T15:57:41.653Z,33.53
2019-04-04T16:00:22.353Z,36.63
2019-04-04T16:03:03.092Z,31.57
2019-04-04T16:05:43.661Z,39.10
2019-04-04T16:08:24.107Z,35.60
2019-04-04T16:11:04.873Z,36.23
2019-04-04T16:13:45.273Z,35.40
2019-04-04T16:16:26.100Z,38.00
2019-04-04T16:19:06.852Z,34.07
2019-04-04T16:21:48.127Z,34.77
2019-04-04T16:24:29.396Z,37.50
2019-04-04T16:27:10.420Z,40.13
2019-04-04T16:29:51.214Z,34.70
2019-04-04T16:35:14.779Z,39.90
2019-04-04T16:37:55.696Z,34.97
2019-04-04T16:40:36.812Z,37.70
2019-04-04T16:43:17.389Z,41.77
2019-04-04T16:45:58.187Z,39.60
2019-04-04T16:48:39.317Z,41.93
2019-04-04T16:51:20.232Z,43.27
2019-04-04T16:54:01.340Z,49.93
2019-04-04T16:56:41.710Z,56.73
2019-04-04T16:59:22.520Z,49.13
2019-04-04T17:02:03.526Z,58.50
2019-04-04T17:04:44.253Z,57.93
2019-04-04T17:07:25.011Z,55.40
2019-04-04T17:10:05.792Z,61.43
2019-04-04T17:12:46.569Z,60.57
2019-04-04T17:15:27.833Z,60.53
2019-04-04T17:18:08.432Z,56.67
2019-04-04T17:20:49.482Z,61.70
2019-04-04T17:23:30.755Z,67.23
2019-04-04T17:26:11.845Z,63.67
2019-04-04T17:28:52.491Z,67.83
2019-04-04T17:31:34.009Z,65.60
2019-04-04T17:34:15.762Z,56.80
2019-04-04T17:36:57.434Z,62.17
2019-04-04T17:39:38.151Z,64.13
2019-04-04T17:45:02.571Z,64.67
2019-04-04T17:47:44.273Z,58.30
2019-04-04T17:50:25.244Z,64.37
2019-04-04T17:53:06.446Z,62.70
2019-04-04T17:55:48.492Z,69.47
2019-04-04T17:58:29.894Z,59.17
2019-04-04T18:01:12.792Z,62.23
2019-04-04T18:03:53.691Z,60.63
2019-04-04T18:06:34.618Z,63.10
2019-04-04T18:09:15.928Z,61.73
2019-04-04T18:11:57.067Z,59.60
2019-04-04T18:14:37.979Z,68.93
2019-04-04T18:20:02.254Z,58.60
2019-04-04T18:22:43.548Z,61.37
2019-04-04T18:25:25.133Z,59.10
2019-04-04T18:28:05.800Z,56.40
2019-04-04T18:30:47.188Z,55.43
2019-04-04T18:33:27.997Z,52.20
2019-04-04T18:36:08.729Z,55.10
2019-04-04T18:38:49.351Z,46.90
2019-04-04T18:41:30.521Z,46.50
2019-04-04T18:44:11.787Z,46.80
2019-04-04T18:46:52.502Z,47.20
2019-04-04T18:49:33.801Z,44.87
2019-04-04T18:52:15.224Z,42.40
2019-04-04T18:54:56.098Z,41.23
2019-04-04T18:57:36.650Z,44.10
2019-04-04T19:00:17.504Z,46.00
2019-04-04T19:02:58.121Z,48.03
2019-04-04T19:05:39.353Z,46.83
2019-04-04T19:08:19.782Z,45.67
2019-04-04T19:11:00.661Z,49.80
2019-04-04T19:13:44.416Z,49.03
2019-04-04T19:16:24.132Z,54.20
2019-04-04T19:19:04.918Z,46.50
2019-04-04T19:21:45.599Z,47.30
2019-04-04T19:24:26.840Z,47.30
2019-04-04T19:27:08.103Z,48.23
2019-04-04T19:29:49.309Z,51.13
2019-04-04T19:32:29.910Z,45.30
2019-04-04T19:38:00.205Z,57.37
2019-04-04T19:40:39.712Z,57.63
2019-04-04T19:43:20.981Z,61.97
2019-04-04T19:46:01.769Z,60.47
2019-04-04T19:48:42.886Z,52.87
2019-04-04T19:51:24.396Z,57.73
2019-04-04T19:54:05.076Z,59.03
2019-04-04T19:56:45.864Z,64.17
2019-04-04T19:59:26.659Z,58.43
2019-04-04T20:02:07.565Z,61.13
2019-04-04T20:04:49.319Z,58.43
2019-04-04T20:07:30.679Z,62.20
2019-04-04T20:12:54.862Z,66.77
2019-04-04T20:15:36.094Z,70.03
2019-04-04T20:18:16.589Z,64.53
2019-04-04T20:20:57.216Z,73.30
2019-04-04T20:23:38.368Z,65.87
2019-04-04T20:26:19.194Z,72.33
2019-04-04T20:29:00.191Z,70.23
2019-04-04T20:31:41.075Z,74.53
2019-04-04T20:34:21.976Z,75.20
2019-04-04T20:37:03.244Z,73.13
2019-04-04T20:39:43.944Z,72.67
2019-04-04T20:42:24.798Z,69.40
2019-04-04T20:45:05.312Z,73.13
2019-04-04T20:47:46.178Z,66.83
2019-04-04T20:50:27.080Z,75.90
2019-04-04T20:53:07.934Z,67.60
2019-04-04T20:55:48.800Z,72.33
2019-04-04T20:58:29.664Z,77.13
2019-04-04T21:01:10.359Z,78.57
2019-04-04T21:03:51.591Z,81.83
2019-04-04T21:06:32.374Z,75.70
2019-04-04T21:09:13.265Z,81.70
2019-04-04T21:11:54.096Z,83.20
2019-04-04T21:14:34.864Z,81.90
2019-04-04T21:17:15.744Z,78.37
2019-04-04T21:19:56.905Z,76.63
2019-04-04T21:22:38.341Z,83.27
2019-04-04T21:25:19.325Z,77.30
2019-04-04T21:28:00.380Z,79.10
2019-04-04T21:30:41.868Z,78.03
2019-04-04T21:33:22.648Z,75.77
2019-04-04T21:36:03.568Z,82.97
2019-04-04T21:38:44.500Z,84.50
2019-04-04T21:41:25.445Z,80.37
2019-04-04T21:44:09.172Z,83.67
2019-04-04T21:46:48.918Z,86.50
2019-04-04T21:49:29.711Z,79.03
2019-04-04T21:52:10.380Z,91.47
2019-04-04T21:54:51.035Z,89.23
2019-04-04T21:57:31.806Z,83.73
2019-04-04T22:00:12.808Z,87.23
2019-04-04T22:02:53.419Z,96.17
2019-04-04T22:05:34.310Z,95.30
2019-04-04T22:08:15.058Z,90.53
2019-04-04T22:10:56.400Z,94.33
2019-04-04T22:13:36.993Z,99.87
2019-04-04T22:16:18.059Z,101.23
2019-04-04T22:18:58.616Z,95.70
2019-04-04T22:21:39.873Z,105.57
2019-04-04T22:24:22.385Z,102.27
2019-04-04T22:27:02.842Z,100.87
2019-04-04T22:29:44.528Z,107.50
2019-04-04T22:32:25.885Z,107.77
2019-04-04T22:35:06.960Z,102.60
2019-04-04T22:37:47.898Z,108.47
2019-04-04T22:40:28.521Z,112.30
2019-04-04T22:43:09.696Z,102.20
2019-04-04T22:45:50.322Z,112.27
2019-04-04T22:48:31.074Z,116.13
2019-04-04T22:51:11.491Z,105.37
2019-04-04T22:53:52.080Z,104.27
2019-04-04T22:56:32.908Z,114.20
2019-04-04T22:59:13.412Z,110.40
2019-04-04T23:01:54.203Z,117.60
2019-04-04T23:04:35.387Z,118.33
2019-04-04T23:10:02.062Z,122.67
2019-04-04T23:12:42.722Z,116.57
2019-04-04T23:15:23.477Z,112.23
2019-04-04T23:18:04.166Z,123.93
2019-04-04T23:20:45.116Z,126.00
2019-04-04T23:23:25.726Z,119.57
2019-04-04T23:26:06.951Z,128.80
2019-04-04T23:28:47.416Z,135.83
2019-04-04T23:31:28.193Z,130.23
2019-04-04T23:34:08.757Z,121.47
2019-04-04T23:36:49.209Z,124.17
2019-04-04T23:39:30.044Z,139.93
2019-04-04T23:42:10.884Z,118.70
2019-04-04T23:45:00.816Z,115.63
2019-04-04T23:47:42.680Z,110.50
2019-04-04T23:50:17.164Z,128.33
2019-04-04T23:52:57.996Z,119.07
2019-04-04T23:55:38.680Z,125.20
2019-04-04T23:58:19.419Z,103.33
